FTTJ

N'Djamena International Airport

N'Djamena, Chad
METAR FTTJ 201600Z 09007KT CAVOK 37/06 Q1007 NOSIG
Observed Flight Rules
Oct-20 @ 16:00 UTC (an hour ago) Visual Flight Rules
Wind Visibility Clouds
90° at 7 knots 10,000+ meters
  • Clear skies
Temperatures Readings
Current 37°C / 99°F
Dewpoint 6°C / 43°F
Humidity 15%
Altimeter 29.73" Hg
Pressure 1007 hPa
Elevation 295
METAR FTTJ 201600Z 09007KT CAVOK 37/06 Q1007 NOSIG
Observed Flight Rules
Oct-20 @ 16:00 UTC
(an hour ago)
VFR
Wind Visibility
90° at 7 knots 10,000+ meters
Clouds
  • Clear skies
Temperature Dewpoint
37°C / 99°F 6°C / 43°F
Humidity Altimeter Pressure
15% 29.73" Hg 1007 hPa